createdAt,value
2019-05-11T00:02:13.580Z,11.84
2019-05-11T00:04:48.379Z,11.81
2019-05-11T00:07:22.140Z,11.80
2019-05-11T00:09:58.406Z,11.78
2019-05-11T00:12:30.474Z,11.65
2019-05-11T00:15:05.799Z,11.46
2019-05-11T00:17:39.515Z,11.65
2019-05-11T00:20:12.198Z,11.59
2019-05-11T00:22:48.119Z,11.55
2019-05-11T00:25:24.152Z,11.50
2019-05-11T00:27:58.034Z,11.51
2019-05-11T00:30:32.407Z,11.53
2019-05-11T00:33:06.340Z,11.48
2019-05-11T00:35:41.722Z,11.44
2019-05-11T00:38:15.444Z,11.42
2019-05-11T00:40:49.646Z,11.44
2019-05-11T00:43:23.470Z,11.44
2019-05-11T00:45:57.361Z,11.41
2019-05-11T00:48:31.852Z,11.42
2019-05-11T00:51:05.605Z,11.42
2019-05-11T00:53:39.394Z,11.18
2019-05-11T00:56:13.206Z,11.43
2019-05-11T00:58:46.953Z,11.43
2019-05-11T01:01:20.767Z,11.44
2019-05-11T01:03:55.095Z,11.41
2019-05-11T01:06:28.911Z,11.41
2019-05-11T01:09:04.164Z,11.38
2019-05-11T01:11:37.963Z,11.34
2019-05-11T01:14:12.100Z,11.33
2019-05-11T01:16:45.950Z,11.31
2019-05-11T01:19:19.768Z,11.29
2019-05-11T01:21:53.560Z,11.27
2019-05-11T01:24:29.610Z,11.25
2019-05-11T01:27:03.766Z,11.22
2019-05-11T01:29:38.544Z,11.16
2019-05-11T01:32:12.326Z,11.15
2019-05-11T01:34:46.358Z,11.15
2019-05-11T01:37:20.157Z,11.09
2019-05-11T01:39:53.927Z,11.10
2019-05-11T01:42:27.701Z,11.10
2019-05-11T01:45:01.435Z,11.04
2019-05-11T01:47:35.625Z,10.99
2019-05-11T01:50:09.619Z,10.94
2019-05-11T01:52:43.400Z,10.87
2019-05-11T01:55:18.887Z,10.87
2019-05-11T01:57:52.744Z,10.85
2019-05-11T02:00:26.592Z,10.86
2019-05-11T02:03:00.386Z,10.83
2019-05-11T02:05:34.351Z,10.81
2019-05-11T02:08:08.299Z,10.80
2019-05-11T02:10:42.101Z,10.78
2019-05-11T02:13:17.534Z,10.78
2019-05-11T02:15:51.370Z,10.72
2019-05-11T02:18:26.412Z,10.72
2019-05-11T02:21:00.271Z,10.72
2019-05-11T02:23:34.507Z,10.67
2019-05-11T02:26:08.407Z,10.61
2019-05-11T02:28:42.323Z,10.58
2019-05-11T02:31:16.148Z,10.54
2019-05-11T02:33:49.911Z,10.54
2019-05-11T02:36:23.743Z,10.43
2019-05-11T02:38:58.877Z,10.48
2019-05-11T02:41:37.053Z,10.47
2019-05-11T02:44:08.829Z,10.42
2019-05-11T02:46:42.691Z,10.38
2019-05-11T02:49:17.706Z,10.42
2019-05-11T02:51:51.695Z,10.39
2019-05-11T02:54:25.991Z,10.40
2019-05-11T02:56:59.749Z,10.44
2019-05-11T02:59:33.564Z,10.41
2019-05-11T03:02:07.334Z,10.41
2019-05-11T03:04:41.161Z,10.40
2019-05-11T03:07:15.602Z,10.39
2019-05-11T03:09:49.595Z,10.38
2019-05-11T03:12:24.383Z,10.42
2019-05-11T03:14:58.329Z,10.41
2019-05-11T03:17:34.208Z,10.40
2019-05-11T03:20:08.514Z,10.34
2019-05-11T03:22:42.443Z,10.27
2019-05-11T03:25:16.455Z,10.15
2019-05-11T03:27:50.666Z,10.13
2019-05-11T03:30:25.869Z,10.14
2019-05-11T03:33:00.491Z,10.18
2019-05-11T03:35:34.545Z,10.17
2019-05-11T03:38:08.537Z,10.15
2019-05-11T03:40:42.338Z,10.18
2019-05-11T03:43:16.061Z,10.14
2019-05-11T03:45:49.796Z,10.13
2019-05-11T03:48:23.584Z,9.82
2019-05-11T03:50:57.521Z,9.90
2019-05-11T03:53:33.109Z,9.91
2019-05-11T03:56:08.622Z,9.92
2019-05-11T03:58:43.656Z,9.93
2019-05-11T04:01:18.126Z,9.89
2019-05-11T04:03:52.236Z,9.81
2019-05-11T04:06:26.120Z,9.89
2019-05-11T04:09:00.243Z,9.92
2019-05-11T04:11:34.595Z,9.63
2019-05-11T04:14:08.463Z,9.72
2019-05-11T04:16:42.661Z,9.63
2019-05-11T04:19:17.183Z,9.67
2019-05-11T04:21:51.507Z,9.74
2019-05-11T04:24:26.086Z,9.72
2019-05-11T04:27:00.215Z,9.79
2019-05-11T04:29:34.547Z,9.73
2019-05-11T04:32:08.525Z,9.78
2019-05-11T04:34:44.008Z,9.83
2019-05-11T04:37:18.839Z,9.82
2019-05-11T04:39:53.650Z,9.76
2019-05-11T04:42:30.190Z,9.68
2019-05-11T04:45:07.618Z,9.73
2019-05-11T04:47:42.257Z,9.69
2019-05-11T04:50:21.326Z,9.75
2019-05-11T04:52:58.406Z,9.80
2019-05-11T04:55:32.263Z,9.83
2019-05-11T04:58:07.369Z,9.75
2019-05-11T05:00:41.116Z,9.85
2019-05-11T05:03:15.055Z,9.92
2019-05-11T05:05:49.857Z,9.95
2019-05-11T05:08:26.689Z,10.02
2019-05-11T05:11:00.754Z,10.06
2019-05-11T05:13:35.301Z,10.14
2019-05-11T05:16:08.823Z,10.19
2019-05-11T05:18:43.412Z,10.17
2019-05-11T05:21:22.543Z,10.14
2019-05-11T05:23:56.405Z,10.30
2019-05-11T05:26:31.369Z,10.30
2019-05-11T05:29:06.693Z,10.37
2019-05-11T05:32:22.948Z,10.42
2019-05-11T05:35:01.015Z,10.40
2019-05-11T05:37:36.617Z,10.31
2019-05-11T05:40:13.551Z,10.29
2019-05-11T05:42:48.144Z,10.26
2019-05-11T05:45:23.656Z,10.35
2019-05-11T05:47:58.507Z,10.41
2019-05-11T05:50:32.976Z,10.44
2019-05-11T05:53:07.033Z,10.41
2019-05-11T05:55:41.079Z,10.41
2019-05-11T05:58:15.009Z,10.44
2019-05-11T06:00:51.183Z,10.39
2019-05-11T06:03:35.748Z,10.36
2019-05-11T06:06:10.213Z,10.47
2019-05-11T06:08:44.051Z,10.58
2019-05-11T06:11:17.846Z,10.57
2019-05-11T06:13:51.529Z,10.66
2019-05-11T06:16:25.432Z,10.73
2019-05-11T06:18:59.229Z,10.79
2019-05-11T06:21:33.326Z,10.73
2019-05-11T06:24:09.069Z,10.81
2019-05-11T06:26:42.939Z,10.87
2019-05-11T06:29:16.690Z,10.94
2019-05-11T06:31:52.933Z,10.98
2019-05-11T06:34:28.722Z,10.97
2019-05-11T06:37:02.967Z,10.97
2019-05-11T06:39:37.148Z,10.97
2019-05-11T06:42:11.017Z,10.99
2019-05-11T06:44:50.049Z,10.96
2019-05-11T06:47:26.403Z,10.99
2019-05-11T06:50:05.283Z,11.05
2019-05-11T06:52:39.444Z,11.11
2019-05-11T06:55:14.386Z,11.22
2019-05-11T06:57:52.076Z,11.32
2019-05-11T07:00:27.957Z,11.35
2019-05-11T07:03:02.111Z,11.38
2019-05-11T07:05:35.794Z,11.40
2019-05-11T07:08:12.955Z,11.54
2019-05-11T07:10:46.421Z,11.59
2019-05-11T07:13:19.905Z,11.56
2019-05-11T07:15:55.275Z,11.58
2019-05-11T07:18:28.693Z,11.65
2019-05-11T07:21:02.196Z,11.62
2019-05-11T07:23:36.050Z,11.69
2019-05-11T07:26:09.557Z,11.78
2019-05-11T07:28:43.039Z,11.77
2019-05-11T07:31:16.556Z,11.80
2019-05-11T07:33:52.270Z,11.85
2019-05-11T07:36:28.274Z,11.97
2019-05-11T07:39:08.477Z,12.30
2019-05-11T07:41:41.903Z,12.43
2019-05-11T07:44:15.435Z,12.68
2019-05-11T07:46:49.151Z,12.79
2019-05-11T07:49:29.055Z,12.87
2019-05-11T07:52:20.119Z,12.99
2019-05-11T07:54:53.445Z,13.52
2019-05-11T07:57:32.410Z,13.89
2019-05-11T08:00:43.137Z,13.98
2019-05-11T08:03:20.512Z,14.14
2019-05-11T08:05:58.253Z,14.03
2019-05-11T08:08:33.412Z,13.87
2019-05-11T08:11:08.128Z,14.04
2019-05-11T08:13:41.864Z,14.32
2019-05-11T08:16:15.645Z,14.40
2019-05-11T08:18:49.108Z,14.64
2019-05-11T08:21:22.462Z,14.86
2019-05-11T08:23:55.652Z,15.05
2019-05-11T08:26:28.939Z,15.45
2019-05-11T08:29:04.064Z,15.39
2019-05-11T08:31:38.532Z,15.48
2019-05-11T08:34:14.276Z,15.73
2019-05-11T08:36:48.098Z,15.55
2019-05-11T08:39:21.425Z,15.48
2019-05-11T08:41:55.200Z,15.59
2019-05-11T08:44:28.871Z,15.68
2019-05-11T08:47:02.219Z,15.58
2019-05-11T08:49:37.896Z,16.24
2019-05-11T08:52:10.601Z,16.60
2019-05-11T08:54:43.955Z,17.08
2019-05-11T08:57:18.003Z,16.94
2019-05-11T08:59:51.319Z,17.26
2019-05-11T09:02:27.924Z,17.16
2019-05-11T09:05:02.319Z,17.17
2019-05-11T09:07:38.465Z,17.47
2019-05-11T09:10:12.025Z,17.74
2019-05-11T09:12:45.446Z,17.68
2019-05-11T09:15:32.524Z,17.72
2019-05-11T09:17:53.925Z,18.02
2019-05-11T09:20:28.634Z,18.23
2019-05-11T09:23:02.093Z,18.24
2019-05-11T09:25:35.490Z,18.33
2019-05-11T09:28:08.810Z,18.24
2019-05-11T09:30:42.211Z,18.54
2019-05-11T09:33:19.996Z,18.62
2019-05-11T09:35:53.263Z,18.90
2019-05-11T09:38:31.380Z,19.17
2019-05-11T09:41:04.696Z,19.39
2019-05-11T09:43:39.020Z,19.56
2019-05-11T09:46:12.232Z,19.65
2019-05-11T09:48:45.370Z,19.48
2019-05-11T09:51:18.704Z,19.25
2019-05-11T09:53:52.010Z,19.36
2019-05-11T09:56:25.137Z,19.58
2019-05-11T09:58:58.351Z,19.48
2019-05-11T10:01:31.530Z,19.31
2019-05-11T10:04:04.645Z,19.19
2019-05-11T10:06:38.814Z,19.05
2019-05-11T10:09:12.171Z,18.73
2019-05-11T10:11:47.831Z,18.67
2019-05-11T10:14:20.214Z,19.09
2019-05-11T10:16:53.402Z,19.49
2019-05-11T10:19:28.433Z,19.58
2019-05-11T10:22:01.407Z,19.61
2019-05-11T10:24:40.092Z,19.25
2019-05-11T10:32:58.341Z,19.61
2019-05-11T10:35:41.688Z,19.87
2019-05-11T10:38:39.294Z,19.52
2019-05-11T10:41:18.054Z,19.51
2019-05-11T10:44:08.331Z,19.74
2019-05-11T10:46:43.376Z,19.45
2019-05-11T10:49:18.820Z,19.80
2019-05-11T10:51:52.736Z,20.18
2019-05-11T10:54:28.714Z,20.36
2019-05-11T10:57:01.824Z,20.51
2019-05-11T10:59:38.590Z,20.49
2019-05-11T11:02:10.881Z,20.57
2019-05-11T11:04:44.424Z,20.64
2019-05-11T11:07:19.523Z,20.79
2019-05-11T11:09:54.364Z,20.87
2019-05-11T11:12:29.099Z,20.62
2019-05-11T11:15:02.735Z,20.77
2019-05-11T11:17:38.152Z,20.64
2019-05-11T11:20:12.288Z,20.61
2019-05-11T11:22:48.293Z,20.64
2019-05-11T11:25:22.002Z,20.51
2019-05-11T11:27:57.701Z,20.27
2019-05-11T11:30:30.755Z,20.34
2019-05-11T11:33:04.511Z,20.55
2019-05-11T11:35:38.526Z,20.65
2019-05-11T11:38:12.332Z,20.64
2019-05-11T11:40:48.131Z,20.64
2019-05-11T11:43:21.427Z,20.57
2019-05-11T11:45:55.167Z,20.57
2019-05-11T11:48:28.988Z,20.64
2019-05-11T11:51:02.518Z,20.39
2019-05-11T11:53:38.185Z,20.49
2019-05-11T11:56:11.175Z,20.30
2019-05-11T11:58:44.795Z,20.25
2019-05-11T12:01:19.082Z,20.47
2019-05-11T12:03:52.848Z,20.69
2019-05-11T12:06:27.988Z,20.74
2019-05-11T12:09:02.986Z,20.83
2019-05-11T12:11:38.106Z,20.84
2019-05-11T12:14:11.891Z,20.74
2019-05-11T12:16:47.818Z,20.63
2019-05-11T12:19:20.831Z,20.63
2019-05-11T12:21:54.611Z,20.54
2019-05-11T12:24:41.166Z,20.51
2019-05-11T12:27:14.647Z,20.28
2019-05-11T12:29:48.112Z,20.32
2019-05-11T12:32:31.443Z,20.22
2019-05-11T12:35:08.979Z,19.80
2019-05-11T12:37:59.716Z,19.63
2019-05-11T12:40:34.075Z,19.64
2019-05-11T12:43:08.323Z,19.50
2019-05-11T12:45:42.060Z,19.55
2019-05-11T12:48:17.905Z,19.34
2019-05-11T12:50:51.082Z,19.45
2019-05-11T12:53:24.612Z,19.61
2019-05-11T12:55:58.902Z,19.44
2019-05-11T12:58:32.723Z,19.42
2019-05-11T13:01:08.937Z,19.50
2019-05-11T13:03:42.730Z,19.54
2019-05-11T13:06:18.865Z,19.39
2019-05-11T13:08:52.122Z,19.39
2019-05-11T13:11:28.425Z,19.44
2019-05-11T13:14:04.288Z,19.41
2019-05-11T13:16:40.863Z,19.30
2019-05-11T13:19:17.592Z,19.26
2019-05-11T13:21:51.248Z,19.14
2019-05-11T13:24:24.737Z,19.14
2019-05-11T13:26:59.787Z,19.21
2019-05-11T13:29:33.359Z,19.29
2019-05-11T13:32:07.877Z,19.24
2019-05-11T13:34:41.432Z,19.21
2019-05-11T13:37:16.048Z,19.29
2019-05-11T13:39:49.584Z,19.20
2019-05-11T13:42:23.388Z,19.02
2019-05-11T13:44:58.411Z,18.96
2019-05-11T13:47:31.962Z,18.93
2019-05-11T13:50:07.586Z,18.93
2019-05-11T13:52:40.466Z,18.90
2019-05-11T13:55:14.547Z,18.92
2019-05-11T13:57:48.718Z,18.86
2019-05-11T14:00:28.730Z,18.89
2019-05-11T14:03:07.876Z,18.89
2019-05-11T14:05:44.084Z,18.78
2019-05-11T14:08:20.136Z,18.76
2019-05-11T14:10:55.466Z,18.66
2019-05-11T14:13:29.418Z,18.61
2019-05-11T14:16:03.304Z,18.61
2019-05-11T14:18:58.010Z,18.62
2019-05-11T14:21:32.412Z,18.68
2019-05-11T14:24:13.715Z,18.74
2019-05-11T14:26:50.415Z,18.70
2019-05-11T14:29:34.452Z,18.72
2019-05-11T14:32:42.861Z,18.73
2019-05-11T14:39:02.761Z,18.52
2019-05-11T14:41:44.484Z,18.52
2019-05-11T14:44:21.316Z,18.56
2019-05-11T14:46:54.875Z,18.45
2019-05-11T14:49:28.497Z,18.25
2019-05-11T14:52:02.026Z,18.23
2019-05-11T14:54:38.036Z,18.15
2019-05-11T14:57:10.765Z,18.10
2019-05-11T14:59:44.271Z,18.11
2019-05-11T15:02:38.025Z,18.07
2019-05-11T15:05:11.909Z,18.02
2019-05-11T15:07:47.924Z,18.06
2019-05-11T15:10:21.651Z,18.02
2019-05-11T15:12:55.922Z,17.92
2019-05-11T15:15:32.058Z,17.85
2019-05-11T15:18:19.602Z,17.80
2019-05-11T15:20:54.708Z,17.78
2019-05-11T15:23:28.579Z,17.76
2019-05-11T15:26:10.106Z,17.74
2019-05-11T15:28:43.811Z,17.72
2019-05-11T15:31:22.128Z,17.66
2019-05-11T15:33:52.711Z,17.61
2019-05-11T15:36:28.387Z,17.59
2019-05-11T15:39:02.247Z,17.52
2019-05-11T15:41:38.798Z,17.47
2019-05-11T15:44:12.356Z,17.45
2019-05-11T15:46:47.958Z,17.42
2019-05-11T15:49:21.367Z,17.40
2019-05-11T15:51:55.049Z,17.42
2019-05-11T15:54:30.478Z,17.39
2019-05-11T15:57:04.041Z,17.32
2019-05-11T15:59:38.920Z,17.22
2019-05-11T16:02:12.626Z,17.15
2019-05-11T16:04:49.144Z,17.16
2019-05-11T16:07:23.569Z,17.15
2019-05-11T16:09:57.869Z,17.14
2019-05-11T16:12:31.491Z,17.14
2019-05-11T16:15:08.588Z,17.09
2019-05-11T16:17:41.797Z,17.07
2019-05-11T16:20:18.053Z,17.08
2019-05-11T16:22:53.737Z,17.03
2019-05-11T16:25:28.150Z,17.01
2019-05-11T16:28:02.383Z,16.97
2019-05-11T16:30:37.763Z,16.91
2019-05-11T16:33:11.006Z,16.92
2019-05-11T16:35:44.602Z,16.90
2019-05-11T16:38:19.242Z,16.86
2019-05-11T16:40:52.986Z,16.85
2019-05-11T16:43:28.121Z,16.86
2019-05-11T16:46:01.862Z,16.83
2019-05-11T16:48:35.457Z,16.76
2019-05-11T16:51:10.317Z,16.76
2019-05-11T16:53:43.919Z,16.74
2019-05-11T16:56:19.491Z,16.72
2019-05-11T16:58:54.876Z,16.74
2019-05-11T17:01:29.001Z,16.71
2019-05-11T17:04:03.046Z,16.72
2019-05-11T17:06:38.500Z,16.53
2019-05-11T17:09:12.263Z,16.70
2019-05-11T17:11:48.809Z,16.68
2019-05-11T17:14:21.998Z,16.64
2019-05-11T17:17:00.233Z,16.67
2019-05-11T17:19:45.405Z,16.62
2019-05-11T17:22:09.092Z,16.62
2019-05-11T17:24:42.797Z,16.61
2019-05-11T17:27:16.467Z,16.60
2019-05-11T17:29:50.072Z,16.54
2019-05-11T17:32:23.641Z,16.51
2019-05-11T17:34:58.255Z,16.27
2019-05-11T17:37:31.919Z,16.53
2019-05-11T17:40:05.898Z,16.48
2019-05-11T17:42:39.855Z,16.42
2019-05-11T17:45:14.047Z,16.36
2019-05-11T17:47:49.043Z,16.33
2019-05-11T17:50:25.396Z,16.31
2019-05-11T17:53:00.241Z,16.27
2019-05-11T17:55:38.384Z,16.23
2019-05-11T17:58:12.360Z,16.22
2019-05-11T18:00:48.028Z,16.23
2019-05-11T18:03:23.916Z,16.23
2019-05-11T18:05:58.979Z,16.20
2019-05-11T18:08:33.499Z,16.18
2019-05-11T18:11:08.360Z,16.17
2019-05-11T18:13:42.318Z,16.09
2019-05-11T18:16:18.543Z,16.08
2019-05-11T18:18:51.967Z,16.02
2019-05-11T18:21:27.964Z,15.98
2019-05-11T18:24:00.983Z,15.96
2019-05-11T18:26:37.615Z,15.95
2019-05-11T18:29:11.152Z,15.91
2019-05-11T18:31:48.636Z,15.91
2019-05-11T18:34:23.576Z,15.90
2019-05-11T18:36:57.823Z,15.89
2019-05-11T18:39:31.701Z,15.89
2019-05-11T18:42:08.109Z,15.88
2019-05-11T18:44:40.818Z,15.84
2019-05-11T18:47:18.375Z,15.81
2019-05-11T18:49:52.314Z,15.80
2019-05-11T18:52:25.947Z,15.80
2019-05-11T18:55:04.126Z,15.78
2019-05-11T18:57:38.998Z,15.78
2019-05-11T19:00:13.023Z,15.79
2019-05-11T19:02:49.357Z,15.75
2019-05-11T19:05:23.975Z,15.69
2019-05-11T19:07:58.499Z,15.64
2019-05-11T19:10:34.146Z,15.58
2019-05-11T19:13:10.802Z,15.56
2019-05-11T19:15:44.595Z,15.48
2019-05-11T19:18:19.090Z,15.42
2019-05-11T19:20:53.404Z,15.32
2019-05-11T19:23:28.758Z,15.24
2019-05-11T19:26:03.275Z,15.18
2019-05-11T19:28:38.474Z,15.18
2019-05-11T19:31:14.793Z,15.16
2019-05-11T19:33:49.043Z,15.10
2019-05-11T19:36:48.547Z,15.06
2019-05-11T19:39:23.189Z,15.01
2019-05-11T19:41:58.091Z,15.00
2019-05-11T19:44:32.238Z,14.99
2019-05-11T19:47:05.979Z,14.96
2019-05-11T19:49:40.423Z,14.92
2019-05-11T19:54:57.789Z,14.94
2019-05-11T19:57:33.158Z,14.91
2019-05-11T20:00:08.159Z,14.87
2019-05-11T20:02:42.437Z,14.86
2019-05-11T20:05:32.716Z,14.84
2019-05-11T20:08:08.312Z,14.85
2019-05-11T20:10:42.551Z,14.79
2019-05-11T20:13:21.765Z,14.77
2019-05-11T20:15:57.680Z,14.77
2019-05-11T20:18:35.084Z,14.74
2019-05-11T20:21:19.324Z,14.77
2019-05-11T20:23:44.926Z,14.72
2019-05-11T20:26:18.706Z,14.71
2019-05-11T20:28:52.884Z,14.69
2019-05-11T20:31:28.890Z,14.64
2019-05-11T20:34:03.734Z,14.68
2019-05-11T20:36:37.435Z,14.64
2019-05-11T20:39:11.293Z,14.60
2019-05-11T20:41:47.635Z,14.57
2019-05-11T20:44:20.948Z,14.57
2019-05-11T20:46:55.324Z,14.51
2019-05-11T20:49:29.495Z,14.45
2019-05-11T20:52:03.664Z,14.43
2019-05-11T20:54:39.410Z,14.42
2019-05-11T20:57:14.478Z,14.38
2019-05-11T20:59:46.944Z,14.32
2019-05-11T21:02:20.695Z,14.33
2019-05-11T21:04:54.458Z,14.29
2019-05-11T21:07:28.230Z,14.30
2019-05-11T21:10:02.455Z,14.35
2019-05-11T21:12:38.703Z,14.31
2019-05-11T21:15:14.359Z,14.24
2019-05-11T21:17:50.244Z,14.29
2019-05-11T21:20:22.433Z,14.29
2019-05-11T21:22:57.999Z,14.27
2019-05-11T21:25:32.464Z,14.29
2019-05-11T21:28:08.735Z,14.28
2019-05-11T21:30:48.144Z,14.25
2019-05-11T21:33:21.439Z,14.29
2019-05-11T21:35:55.251Z,14.27
2019-05-11T21:38:31.656Z,14.19
2019-05-11T21:41:04.534Z,14.11
2019-05-11T21:43:38.426Z,14.03
2019-05-11T21:46:12.160Z,13.97
2019-05-11T21:48:47.895Z,13.94
2019-05-11T21:51:22.827Z,13.94
2019-05-11T21:53:57.844Z,13.96
2019-05-11T21:56:31.687Z,13.96
2019-05-11T21:59:07.777Z,13.97
2019-05-11T22:01:40.900Z,13.91
2019-05-11T22:04:14.718Z,13.89
2019-05-11T22:06:49.510Z,13.91
2019-05-11T22:09:23.365Z,13.89
2019-05-11T22:11:57.623Z,13.90
2019-05-11T22:14:31.434Z,13.88
2019-05-11T22:17:07.701Z,13.89
2019-05-11T22:19:40.622Z,13.90
2019-05-11T22:22:24.252Z,13.91
2019-05-11T22:24:49.867Z,13.86
2019-05-11T22:27:23.605Z,13.89
2019-05-11T22:29:58.948Z,13.91
2019-05-11T22:32:33.038Z,13.92
2019-05-11T22:35:07.360Z,13.87
2019-05-11T22:37:41.266Z,13.86
2019-05-11T22:40:15.421Z,13.86
2019-05-11T22:42:49.295Z,13.88
2019-05-11T22:45:23.175Z,13.88
2019-05-11T22:47:58.513Z,13.88
2019-05-11T22:50:32.560Z,13.86
2019-05-11T22:53:08.882Z,13.87
2019-05-11T22:55:43.118Z,13.87
2019-05-11T22:58:17.894Z,13.86
2019-05-11T23:00:51.815Z,13.85
2019-05-11T23:03:27.712Z,13.75
2019-05-11T23:06:01.267Z,13.75
2019-05-11T23:08:35.242Z,13.72
2019-05-11T23:11:10.607Z,13.66
2019-05-11T23:13:44.622Z,13.62
2019-05-11T23:16:32.015Z,13.62
2019-05-11T23:19:09.741Z,13.55
2019-05-11T23:21:48.066Z,13.46
2019-05-11T23:24:21.349Z,13.36
2019-05-11T23:27:20.098Z,13.32
2019-05-11T23:30:08.481Z,13.19
2019-05-11T23:32:55.252Z,13.11
2019-05-11T23:35:29.794Z,13.10
2019-05-11T23:38:04.041Z,13.09
2019-05-11T23:40:38.271Z,12.90
2019-05-11T23:43:12.393Z,12.79
2019-05-11T23:45:48.195Z,12.75
2019-05-11T23:48:22.616Z,12.79
2019-05-11T23:50:58.233Z,12.75
2019-05-11T23:53:32.107Z,12.67
2019-05-11T23:56:06.094Z,12.58
2019-05-11T23:58:39.997Z,12.49
